sensor_id;sensor_type;location;lat;lon;timestamp;pressure;altitude;pressure_sealevel;temperature;humidity
70589;BME280;58152;49.202;18.744;2023-02-16T00:00:44;98546.19;;;1.00;62.18
70589;BME280;58152;49.202;18.744;2023-02-16T00:03:13;98539.28;;;1.00;62.89
70589;BME280;58152;49.202;18.744;2023-02-16T00:05:39;98529.84;;;1.04;62.51
70589;BME280;58152;49.202;18.744;2023-02-16T00:08:04;98532.50;;;1.07;63.05
70589;BME280;58152;49.202;18.744;2023-02-16T00:10:34;98533.34;;;1.08;62.98
70589;BME280;58152;49.202;18.744;2023-02-16T00:13:01;98539.34;;;1.05;62.99
70589;BME280;58152;49.202;18.744;2023-02-16T00:15:45;98535.06;;;1.06;63.35
70589;BME280;58152;49.202;18.744;2023-02-16T00:18:19;98532.47;;;1.06;63.19
70589;BME280;58152;49.202;18.744;2023-02-16T00:20:45;98529.00;;;1.02;63.78
70589;BME280;58152;49.202;18.744;2023-02-16T00:23:11;98525.50;;;0.98;63.30
70589;BME280;58152;49.202;18.744;2023-02-16T00:25:36;98531.53;;;1.00;63.83
70589;BME280;58152;49.202;18.744;2023-02-16T00:28:06;98530.63;;;0.95;63.92
70589;BME280;58152;49.202;18.744;2023-02-16T00:30:32;98527.16;;;0.93;64.11
70589;BME280;58152;49.202;18.744;2023-02-16T00:32:57;98528.84;;;0.91;64.58
70589;BME280;58152;49.202;18.744;2023-02-16T00:35:23;98519.38;;;0.90;64.42
70589;BME280;58152;49.202;18.744;2023-02-16T00:37:48;98519.34;;;0.87;64.56
70589;BME280;58152;49.202;18.744;2023-02-16T00:40:15;98524.53;;;0.90;63.95
70589;BME280;58152;49.202;18.744;2023-02-16T00:42:44;98524.53;;;0.89;63.87
70589;BME280;58152;49.202;18.744;2023-02-16T00:45:19;98518.50;;;0.88;64.28
70589;BME280;58152;49.202;18.744;2023-02-16T00:47:46;98514.13;;;0.83;64.83
70589;BME280;58152;49.202;18.744;2023-02-16T00:50:19;98514.13;;;0.83;64.70
70589;BME280;58152;49.202;18.744;2023-02-16T00:52:46;98501.13;;;0.75;65.35
70589;BME280;58152;49.202;18.744;2023-02-16T00:55:18;98510.59;;;0.76;65.22
70589;BME280;58152;49.202;18.744;2023-02-16T00:57:55;98504.56;;;0.77;65.46
70589;BME280;58152;49.202;18.744;2023-02-16T01:00:29;98504.50;;;0.72;65.69
70589;BME280;58152;49.202;18.744;2023-02-16T01:02:58;98503.66;;;0.72;65.24
70589;BME280;58152;49.202;18.744;2023-02-16T01:05:24;98507.94;;;0.70;65.81
70589;BME280;58152;49.202;18.744;2023-02-16T01:07:50;98506.19;;;0.67;65.45
70589;BME280;58152;49.202;18.744;2023-02-16T01:10:35;98514.78;;;0.68;66.05
70589;BME280;58152;49.202;18.744;2023-02-16T01:13:19;98509.63;;;0.68;65.68
70589;BME280;58152;49.202;18.744;2023-02-16T01:15:45;98516.50;;;0.67;65.77
70589;BME280;58152;49.202;18.744;2023-02-16T01:18:15;98524.25;;;0.64;65.34
70589;BME280;58152;49.202;18.744;2023-02-16T01:20:40;98507.78;;;0.58;65.95
70589;BME280;58152;49.202;18.744;2023-02-16T01:23:06;98503.47;;;0.57;65.87
70589;BME280;58152;49.202;18.744;2023-02-16T01:25:31;98514.72;;;0.60;65.66
70589;BME280;58152;49.202;18.744;2023-02-16T01:27:57;98509.50;;;0.59;65.89
70589;BME280;58152;49.202;18.744;2023-02-16T01:30:24;98500.91;;;0.58;65.64
70589;BME280;58152;49.202;18.744;2023-02-16T01:32:50;98502.69;;;0.62;65.85
70589;BME280;58152;49.202;18.744;2023-02-16T01:37:44;98493.97;;;0.54;65.76
70589;BME280;58152;49.202;18.744;2023-02-16T01:43:20;98507.72;;;0.53;65.80
70589;BME280;58152;49.202;18.744;2023-02-16T01:45:53;98505.09;;;0.50;65.52
70589;BME280;58152;49.202;18.744;2023-02-16T01:48:24;98497.34;;;0.48;65.86
70589;BME280;58152;49.202;18.744;2023-02-16T01:53:52;98486.09;;;0.43;65.89
70589;BME280;58152;49.202;18.744;2023-02-16T01:56:35;98489.53;;;0.44;65.55
70589;BME280;58152;49.202;18.744;2023-02-16T01:59:13;98483.47;;;0.40;66.19
70589;BME280;58152;49.202;18.744;2023-02-16T02:02:11;98480.00;;;0.37;65.94
70589;BME280;58152;49.202;18.744;2023-02-16T02:04:51;98487.75;;;0.38;65.70
70589;BME280;58152;49.202;18.744;2023-02-16T02:07:57;98487.75;;;0.38;65.85
70589;BME280;58152;49.202;18.744;2023-02-16T02:10:48;98475.66;;;0.34;65.59
70589;BME280;58152;49.202;18.744;2023-02-16T02:13:20;98478.22;;;0.33;65.94
70589;BME280;58152;49.202;18.744;2023-02-16T02:15:48;98471.28;;;0.30;65.19
70589;BME280;58152;49.202;18.744;2023-02-16T02:18:14;98466.91;;;0.26;65.52
70589;BME280;58152;49.202;18.744;2023-02-16T02:38:09;98468.44;;;0.10;64.36
70589;BME280;58152;49.202;18.744;2023-02-16T02:43:22;98458.94;;;0.08;64.35
70589;BME280;58152;49.202;18.744;2023-02-16T02:46:00;98465.81;;;0.07;64.25
70589;BME280;58152;49.202;18.744;2023-02-16T02:48:32;98459.78;;;0.05;64.77
70589;BME280;58152;49.202;18.744;2023-02-16T02:50:58;98464.09;;;0.08;64.15
70589;BME280;58152;49.202;18.744;2023-02-16T02:54:12;98466.69;;;0.08;64.55
70589;BME280;58152;49.202;18.744;2023-02-16T03:03:16;98459.00;;;0.11;64.84
70589;BME280;58152;49.202;18.744;2023-02-16T03:05:45;98455.56;;;0.12;64.31
70589;BME280;58152;49.202;18.744;2023-02-16T03:08:15;98459.84;;;0.11;64.46
70589;BME280;58152;49.202;18.744;2023-02-16T03:10:49;98464.16;;;0.12;64.38
70589;BME280;58152;49.202;18.744;2023-02-16T03:13:38;98470.22;;;0.14;65.18
70589;BME280;58152;49.202;18.744;2023-02-16T03:16:11;98465.03;;;0.13;64.76
70589;BME280;58152;49.202;18.744;2023-02-16T03:18:40;98457.28;;;0.11;65.02
70589;BME280;58152;49.202;18.744;2023-02-16T03:21:27;98464.22;;;0.15;64.91
70589;BME280;58152;49.202;18.744;2023-02-16T03:24:15;98459.84;;;0.13;65.02
70589;BME280;58152;49.202;18.744;2023-02-16T03:27:02;98457.31;;;0.14;65.25
70589;BME280;58152;49.202;18.744;2023-02-16T03:29:48;98472.81;;;0.14;65.29
70589;BME280;58152;49.202;18.744;2023-02-16T03:32:16;98464.19;;;0.14;65.71
70589;BME280;58152;49.202;18.744;2023-02-16T03:34:42;98462.47;;;0.14;65.05
70589;BME280;58152;49.202;18.744;2023-02-16T03:37:07;98458.13;;;0.12;65.41
70589;BME280;58152;49.202;18.744;2023-02-16T03:39:33;98463.34;;;0.16;65.15
70589;BME280;58152;49.202;18.744;2023-02-16T03:42:20;98464.22;;;0.17;65.31
70589;BME280;58152;49.202;18.744;2023-02-16T03:44:46;98471.94;;;0.15;65.67
70589;BME280;58152;49.202;18.744;2023-02-16T03:47:12;98468.53;;;0.18;65.85
70589;BME280;58152;49.202;18.744;2023-02-16T03:49:37;98464.25;;;0.18;65.70
70589;BME280;58152;49.202;18.744;2023-02-16T03:52:03;98463.41;;;0.19;65.64
70589;BME280;58152;49.202;18.744;2023-02-16T03:54:28;98473.72;;;0.19;65.25
70589;BME280;58152;49.202;18.744;2023-02-16T03:56:54;98475.47;;;0.20;65.66
70589;BME280;58152;49.202;18.744;2023-02-16T03:59:19;98466.84;;;0.20;65.44
70589;BME280;58152;49.202;18.744;2023-02-16T04:01:45;98472.81;;;0.17;65.74
70589;BME280;58152;49.202;18.744;2023-02-16T04:04:10;98480.63;;;0.19;65.31
70589;BME280;58152;49.202;18.744;2023-02-16T04:06:36;98475.44;;;0.19;65.63
70589;BME280;58152;49.202;18.744;2023-02-16T04:09:02;98467.66;;;0.17;65.20
70589;BME280;58152;49.202;18.744;2023-02-16T04:11:27;98460.72;;;0.12;65.49
70589;BME280;58152;49.202;18.744;2023-02-16T04:14:11;98465.88;;;0.12;65.79
70589;BME280;58152;49.202;18.744;2023-02-16T04:16:37;98460.72;;;0.10;65.91
70589;BME280;58152;49.202;18.744;2023-02-16T04:19:02;98470.19;;;0.13;66.05
70589;BME280;58152;49.202;18.744;2023-02-16T04:21:28;98454.69;;;0.11;66.57
70589;BME280;58152;49.202;18.744;2023-02-16T04:23:53;98459.84;;;0.13;65.89
70589;BME280;58152;49.202;18.744;2023-02-16T04:26:19;98459.03;;;0.14;65.59
70589;BME280;58152;49.202;18.744;2023-02-16T04:28:44;98462.44;;;0.11;66.13
70589;BME280;58152;49.202;18.744;2023-02-16T04:31:10;98446.94;;;0.11;66.14
70589;BME280;58152;49.202;18.744;2023-02-16T04:33:35;98449.53;;;0.11;66.47
70589;BME280;58152;49.202;18.744;2023-02-16T04:36:01;98440.91;;;0.09;66.26
70589;BME280;58152;49.202;18.744;2023-02-16T04:38:26;98448.66;;;0.11;66.25
70589;BME280;58152;49.202;18.744;2023-02-16T04:40:51;98443.50;;;0.11;65.92
70589;BME280;58152;49.202;18.744;2023-02-16T04:43:17;98440.00;;;0.09;65.84
70589;BME280;58152;49.202;18.744;2023-02-16T04:45:42;98430.56;;;0.08;66.57
70589;BME280;58152;49.202;18.744;2023-02-16T04:48:07;98434.84;;;0.06;66.19
70589;BME280;58152;49.202;18.744;2023-02-16T04:50:33;98438.28;;;0.06;66.92
70589;BME280;58152;49.202;18.744;2023-02-16T04:52:59;98427.97;;;0.06;66.43
70589;BME280;58152;49.202;18.744;2023-02-16T04:55:24;98428.84;;;0.08;66.19
70589;BME280;58152;49.202;18.744;2023-02-16T04:57:50;98427.97;;;0.08;66.73
70589;BME280;58152;49.202;18.744;2023-02-16T05:00:15;98425.44;;;0.09;66.79
70589;BME280;58152;49.202;18.744;2023-02-16T05:02:41;98415.91;;;0.05;66.67
70589;BME280;58152;49.202;18.744;2023-02-16T05:05:07;98424.53;;;0.09;66.60
70589;BME280;58152;49.202;18.744;2023-02-16T05:07:32;98425.38;;;0.08;66.61
70589;BME280;58152;49.202;18.744;2023-02-16T05:09:57;98420.22;;;0.06;66.71
70589;BME280;58152;49.202;18.744;2023-02-16T05:12:23;98412.47;;;0.06;66.74
70589;BME280;58152;49.202;18.744;2023-02-16T05:15:07;98408.19;;;0.08;66.50
70589;BME280;58152;49.202;18.744;2023-02-16T05:17:32;98415.97;;;0.10;66.93
70589;BME280;58152;49.202;18.744;2023-02-16T05:19:59;98415.06;;;0.08;66.84
70589;BME280;58152;49.202;18.744;2023-02-16T05:22:26;98406.47;;;0.07;66.54
70589;BME280;58152;49.202;18.744;2023-02-16T05:24:53;98404.72;;;0.06;66.73
70589;BME280;58152;49.202;18.744;2023-02-16T05:27:23;98411.63;;;0.06;66.49
70589;BME280;58152;49.202;18.744;2023-02-16T05:29:49;98411.63;;;0.06;66.80
70589;BME280;58152;49.202;18.744;2023-02-16T05:32:15;98408.19;;;0.08;66.75
70589;BME280;58152;49.202;18.744;2023-02-16T05:34:40;98404.72;;;0.05;67.50
70589;BME280;58152;49.202;18.744;2023-02-16T05:37:08;98405.59;;;0.07;67.06
70589;BME280;58152;49.202;18.744;2023-02-16T05:39:34;98404.72;;;0.05;67.11
70589;BME280;58152;49.202;18.744;2023-02-16T05:41:59;98403.88;;;0.06;67.02
70589;BME280;58152;49.202;18.744;2023-02-16T05:44:25;98401.31;;;0.09;67.11
70589;BME280;58152;49.202;18.744;2023-02-16T05:46:50;98401.31;;;0.09;67.21
70589;BME280;58152;49.202;18.744;2023-02-16T05:49:16;98409.94;;;0.09;67.77
70589;BME280;58152;49.202;18.744;2023-02-16T05:51:42;98403.88;;;0.09;67.47
70589;BME280;58152;49.202;18.744;2023-02-16T05:54:08;98405.66;;;0.10;68.11
70589;BME280;58152;49.202;18.744;2023-02-16T05:56:43;98414.19;;;0.06;67.61
70589;BME280;58152;49.202;18.744;2023-02-16T05:59:09;98413.34;;;0.05;67.96
70589;BME280;58152;49.202;18.744;2023-02-16T06:01:37;98413.34;;;0.05;68.20
70589;BME280;58152;49.202;18.744;2023-02-16T06:04:06;98414.25;;;0.10;67.81
70589;BME280;58152;49.202;18.744;2023-02-16T06:06:32;98416.84;;;0.10;68.18
70589;BME280;58152;49.202;18.744;2023-02-16T06:08:57;98411.63;;;0.09;68.07
70589;BME280;58152;49.202;18.744;2023-02-16T06:11:22;98405.66;;;0.10;68.30
70589;BME280;58152;49.202;18.744;2023-02-16T06:14:08;98416.84;;;0.13;67.54
70589;BME280;58152;49.202;18.744;2023-02-16T06:16:36;98409.09;;;0.12;67.49
70589;BME280;58152;49.202;18.744;2023-02-16T06:19:03;98404.75;;;0.08;68.54
70589;BME280;58152;49.202;18.744;2023-02-16T06:21:29;98410.81;;;0.11;68.48
70589;BME280;58152;49.202;18.744;2023-02-16T06:23:55;98412.53;;;0.09;67.91
70589;BME280;58152;49.202;18.744;2023-02-16T06:26:21;98423.72;;;0.11;67.64
70589;BME280;58152;49.202;18.744;2023-02-16T06:28:46;98418.56;;;0.10;68.20
70589;BME280;58152;49.202;18.744;2023-02-16T06:31:12;98425.50;;;0.14;68.02
70589;BME280;58152;49.202;18.744;2023-02-16T06:33:38;98415.13;;;0.11;68.33
70589;BME280;58152;49.202;18.744;2023-02-16T06:36:04;98429.78;;;0.15;68.25
70589;BME280;58152;49.202;18.744;2023-02-16T06:38:29;98420.34;;;0.15;67.92
70589;BME280;58152;49.202;18.744;2023-02-16T06:40:55;98416.03;;;0.16;68.32
70589;BME280;58152;49.202;18.744;2023-02-16T06:43:20;98427.22;;;0.18;68.29
70589;BME280;58152;49.202;18.744;2023-02-16T06:45:46;98423.78;;;0.17;68.08
70589;BME280;58152;49.202;18.744;2023-02-16T06:48:12;98429.00;;;0.19;68.52
70589;BME280;58152;49.202;18.744;2023-02-16T06:50:37;98426.41;;;0.20;68.48
70589;BME280;58152;49.202;18.744;2023-02-16T06:53:03;98430.78;;;0.23;68.68
70589;BME280;58152;49.202;18.744;2023-02-16T06:55:28;98429.91;;;0.24;68.02
70589;BME280;58152;49.202;18.744;2023-02-16T06:57:58;98433.34;;;0.24;68.75
70589;BME280;58152;49.202;18.744;2023-02-16T07:00:24;98429.94;;;0.27;68.28
70589;BME280;58152;49.202;18.744;2023-02-16T07:02:50;98438.59;;;0.29;68.62
70589;BME280;58152;49.202;18.744;2023-02-16T07:05:15;98429.13;;;0.30;68.19
70589;BME280;58152;49.202;18.744;2023-02-16T07:07:42;98433.47;;;0.32;68.21
70589;BME280;58152;49.202;18.744;2023-02-16T07:10:08;98437.72;;;0.32;68.50
70589;BME280;58152;49.202;18.744;2023-02-16T07:12:33;98436.06;;;0.34;68.29
70589;BME280;58152;49.202;18.744;2023-02-16T07:14:59;98440.34;;;0.33;68.22
70589;BME280;58152;49.202;18.744;2023-02-16T07:17:24;98430.88;;;0.32;69.17
70589;BME280;58152;49.202;18.744;2023-02-16T07:19:51;98436.97;;;0.37;68.32
70589;BME280;58152;49.202;18.744;2023-02-16T07:22:17;98430.09;;;0.38;68.96
70589;BME280;58152;49.202;18.744;2023-02-16T07:24:42;98431.00;;;0.41;68.69
70589;BME280;58152;49.202;18.744;2023-02-16T07:27:07;98423.19;;;0.38;69.07
70589;BME280;58152;49.202;18.744;2023-02-16T07:29:33;98426.69;;;0.42;69.16
70589;BME280;58152;49.202;18.744;2023-02-16T07:31:59;98418.09;;;0.41;68.48
70589;BME280;58152;49.202;18.744;2023-02-16T07:34:25;98428.47;;;0.46;68.99
70589;BME280;58152;49.202;18.744;2023-02-16T07:36:50;98425.00;;;0.45;69.50
70589;BME280;58152;49.202;18.744;2023-02-16T07:39:16;98412.97;;;0.47;69.14
70589;BME280;58152;49.202;18.744;2023-02-16T07:41:45;98418.25;;;0.57;69.25
70589;BME280;58152;49.202;18.744;2023-02-16T07:44:10;98418.34;;;0.64;69.56
70589;BME280;58152;49.202;18.744;2023-02-16T07:46:36;98415.78;;;0.66;68.67
70589;BME280;58152;49.202;18.744;2023-02-16T07:49:01;98410.66;;;0.69;68.99
70589;BME280;58152;49.202;18.744;2023-02-16T07:51:29;98410.66;;;0.69;68.85
70589;BME280;58152;49.202;18.744;2023-02-16T07:53:55;98405.47;;;0.69;68.53
70589;BME280;58152;49.202;18.744;2023-02-16T07:56:27;98408.09;;;0.73;68.94
70589;BME280;58152;49.202;18.744;2023-02-16T07:58:54;98417.63;;;0.79;69.11
70589;BME280;58152;49.202;18.744;2023-02-16T08:01:20;98406.44;;;0.80;68.99
70589;BME280;58152;49.202;18.744;2023-02-16T08:03:46;98404.78;;;0.87;69.07
70589;BME280;58152;49.202;18.744;2023-02-16T08:06:12;98410.88;;;0.92;69.44
70589;BME280;58152;49.202;18.744;2023-02-16T08:08:37;98400.50;;;0.89;69.13
70589;BME280;58152;49.202;18.744;2023-02-16T08:11:26;98402.28;;;0.94;68.58
70589;BME280;58152;49.202;18.744;2023-02-16T08:13:52;98398.81;;;0.95;69.27
70589;BME280;58152;49.202;18.744;2023-02-16T08:16:23;98398.00;;;0.99;69.07
70589;BME280;58152;49.202;18.744;2023-02-16T08:18:57;98410.16;;;1.08;69.06
70589;BME280;58152;49.202;18.744;2023-02-16T08:21:26;98410.19;;;1.13;69.41
70589;BME280;58152;49.202;18.744;2023-02-16T08:23:54;98400.75;;;1.15;68.83
70589;BME280;58152;49.202;18.744;2023-02-16T08:26:28;98401.63;;;1.18;69.40
70589;BME280;58152;49.202;18.744;2023-02-16T08:28:56;98398.25;;;1.25;69.08
70589;BME280;58152;49.202;18.744;2023-02-16T08:31:23;98382.72;;;1.27;69.11
70589;BME280;58152;49.202;18.744;2023-02-16T08:33:50;98384.50;;;1.31;69.31
70589;BME280;58152;49.202;18.744;2023-02-16T08:36:24;98385.38;;;1.35;68.63
70589;BME280;58152;49.202;18.744;2023-02-16T08:38:52;98382.81;;;1.35;68.75
70589;BME280;58152;49.202;18.744;2023-02-16T08:41:19;98390.59;;;1.41;69.34
70589;BME280;58152;49.202;18.744;2023-02-16T08:43:45;98388.91;;;1.43;69.44
70589;BME280;58152;49.202;18.744;2023-02-16T08:46:11;98375.13;;;1.42;68.93
70589;BME280;58152;49.202;18.744;2023-02-16T08:48:37;98384.63;;;1.48;69.36
70589;BME280;58152;49.202;18.744;2023-02-16T08:51:04;98388.91;;;1.46;69.13
70589;BME280;58152;49.202;18.744;2023-02-16T08:53:34;98386.38;;;1.52;69.62
70589;BME280;58152;49.202;18.744;2023-02-16T08:56:02;98382.94;;;1.53;69.51
70589;BME280;58152;49.202;18.744;2023-02-16T08:58:29;98382.13;;;1.62;69.04
70589;BME280;58152;49.202;18.744;2023-02-16T09:00:55;98374.38;;;1.65;69.09
70589;BME280;58152;49.202;18.744;2023-02-16T09:03:20;98387.34;;;1.69;69.25
70589;BME280;58152;49.202;18.744;2023-02-16T09:05:50;98389.97;;;1.77;69.10
70589;BME280;58152;49.202;18.744;2023-02-16T09:08:18;98386.56;;;1.81;69.33
70589;BME280;58152;49.202;18.744;2023-02-16T09:10:44;98396.09;;;1.88;69.35
70589;BME280;58152;49.202;18.744;2023-02-16T09:13:10;98385.75;;;1.90;68.84
70589;BME280;58152;49.202;18.744;2023-02-16T09:15:38;98390.94;;;1.94;69.25
70589;BME280;58152;49.202;18.744;2023-02-16T09:18:04;98386.66;;;2.01;68.98
70589;BME280;58152;49.202;18.744;2023-02-16T09:20:29;98400.50;;;2.08;68.95
70589;BME280;58152;49.202;18.744;2023-02-16T09:22:55;98391.88;;;2.10;68.88
70589;BME280;58152;49.202;18.744;2023-02-16T09:25:20;98397.97;;;2.18;69.07
70589;BME280;58152;49.202;18.744;2023-02-16T09:27:46;98400.56;;;2.24;69.38
70589;BME280;58152;49.202;18.744;2023-02-16T09:30:12;98394.56;;;2.30;69.00
70589;BME280;58152;49.202;18.744;2023-02-16T09:32:37;98397.16;;;2.32;68.79
70589;BME280;58152;49.202;18.744;2023-02-16T09:35:04;98401.50;;;2.37;68.86
70589;BME280;58152;49.202;18.744;2023-02-16T09:37:29;98392.00;;;2.42;68.80
70589;BME280;58152;49.202;18.744;2023-02-16T09:39:56;98397.25;;;2.58;69.07
70589;BME280;58152;49.202;18.744;2023-02-16T09:42:30;98405.94;;;2.72;68.63
70589;BME280;58152;49.202;18.744;2023-02-16T09:45:06;98393.84;;;2.82;69.65
70589;BME280;58152;49.202;18.744;2023-02-16T09:47:35;98399.09;;;2.98;69.94
70589;BME280;58152;49.202;18.744;2023-02-16T09:50:25;98391.31;;;3.08;68.57
70589;BME280;58152;49.202;18.744;2023-02-16T09:53:07;98385.28;;;3.21;68.23
70589;BME280;58152;49.202;18.744;2023-02-16T09:55:46;98392.16;;;3.23;67.95
70589;BME280;58152;49.202;18.744;2023-02-16T09:58:21;98389.56;;;3.25;67.50
70589;BME280;58152;49.202;18.744;2023-02-16T10:01:02;98387.84;;;3.27;67.39
70589;BME280;58152;49.202;18.744;2023-02-16T10:03:52;98397.38;;;3.26;67.56
70589;BME280;58152;49.202;18.744;2023-02-16T10:08:56;98384.41;;;3.31;67.11
70589;BME280;58152;49.202;18.744;2023-02-16T10:11:39;98393.91;;;3.34;66.80
70589;BME280;58152;49.202;18.744;2023-02-16T10:14:30;98393.91;;;3.40;67.14
70589;BME280;58152;49.202;18.744;2023-02-16T10:17:33;98385.25;;;3.58;66.35
70589;BME280;58152;49.202;18.744;2023-02-16T10:23:00;98375.66;;;3.96;66.22
70589;BME280;58152;49.202;18.744;2023-02-16T10:28:20;98376.38;;;4.35;66.15
70589;BME280;58152;49.202;18.744;2023-02-16T10:30:52;98364.19;;;4.54;65.07
70589;BME280;58152;49.202;18.744;2023-02-16T10:39:34;98361.16;;;5.18;63.70
70589;BME280;58152;49.202;18.744;2023-02-16T10:44:57;98358.94;;;5.68;62.81
70589;BME280;58152;49.202;18.744;2023-02-16T10:47:36;98354.66;;;5.65;62.93
70589;BME280;58152;49.202;18.744;2023-02-16T10:50:05;98354.72;;;5.59;62.44
70589;BME280;58152;49.202;18.744;2023-02-16T10:52:34;98340.00;;;5.55;62.32
70589;BME280;58152;49.202;18.744;2023-02-16T10:55:02;98348.72;;;5.51;62.31
70589;BME280;58152;49.202;18.744;2023-02-16T10:57:30;98337.25;;;5.69;61.61
70589;BME280;58152;49.202;18.744;2023-02-16T10:59:58;98324.88;;;5.89;60.96
70589;BME280;58152;49.202;18.744;2023-02-16T11:02:37;98325.56;;;6.09;60.88
70589;BME280;58152;49.202;18.744;2023-02-16T11:07:56;98319.16;;;6.35;60.58
70589;BME280;58152;49.202;18.744;2023-02-16T11:10:35;98318.06;;;6.51;60.17
70589;BME280;58152;49.202;18.744;2023-02-16T11:13:02;98311.81;;;6.63;59.65
70589;BME280;58152;49.202;18.744;2023-02-16T11:15:28;98303.63;;;6.86;59.34
70589;BME280;58152;49.202;18.744;2023-02-16T11:18:06;98296.47;;;6.99;58.84
70589;BME280;58152;49.202;18.744;2023-02-16T11:25:52;98296.34;;;7.56;57.55
70589;BME280;58152;49.202;18.744;2023-02-16T11:28:43;98289.88;;;7.77;57.78
70589;BME280;58152;49.202;18.744;2023-02-16T11:33:34;98276.38;;;8.00;56.48
70589;BME280;58152;49.202;18.744;2023-02-16T11:36:03;98285.78;;;8.08;56.85
70589;BME280;58152;49.202;18.744;2023-02-16T11:38:54;98274.06;;;8.26;55.31
70589;BME280;58152;49.202;18.744;2023-02-16T11:41:23;98274.63;;;8.42;55.80
70589;BME280;58152;49.202;18.744;2023-02-16T11:43:50;98269.94;;;8.56;55.38
70589;BME280;58152;49.202;18.744;2023-02-16T11:46:18;98267.09;;;8.67;54.77
70589;BME280;58152;49.202;18.744;2023-02-16T11:48:46;98262.56;;;8.75;54.40
70589;BME280;58152;49.202;18.744;2023-02-16T11:51:13;98260.75;;;8.77;54.68
70589;BME280;58152;49.202;18.744;2023-02-16T11:53:41;98258.75;;;8.87;54.17
70589;BME280;58152;49.202;18.744;2023-02-16T11:56:23;98262.00;;;8.98;54.04
70589;BME280;58152;49.202;18.744;2023-02-16T11:59:06;98262.41;;;9.15;53.14
70589;BME280;58152;49.202;18.744;2023-02-16T12:04:21;98251.09;;;9.49;53.28
70589;BME280;58152;49.202;18.744;2023-02-16T12:10:23;98240.91;;;9.70;51.79
70589;BME280;58152;49.202;18.744;2023-02-16T12:13:21;98233.56;;;9.82;51.69
70589;BME280;58152;49.202;18.744;2023-02-16T12:16:00;98228.88;;;10.23;50.90
70589;BME280;58152;49.202;18.744;2023-02-16T12:18:40;98233.03;;;10.60;51.15
70589;BME280;58152;49.202;18.744;2023-02-16T12:21:20;98232.22;;;10.86;49.99
70589;BME280;58152;49.202;18.744;2023-02-16T12:24:06;98221.59;;;10.89;49.84
70589;BME280;58152;49.202;18.744;2023-02-16T12:27:35;98225.81;;;10.93;49.39
70589;BME280;58152;49.202;18.744;2023-02-16T12:32:45;98216.19;;;10.93;48.46
70589;BME280;58152;49.202;18.744;2023-02-16T12:40:53;98210.59;;;11.04;48.75
70589;BME280;58152;49.202;18.744;2023-02-16T12:45:49;98200.19;;;11.01;49.62
70589;BME280;58152;49.202;18.744;2023-02-16T12:49:10;98198.63;;;10.96;48.41
70589;BME280;58152;49.202;18.744;2023-02-16T12:51:36;98187.38;;;10.92;48.79
70589;BME280;58152;49.202;18.744;2023-02-16T12:54:08;98190.91;;;10.91;49.53
70589;BME280;58152;49.202;18.744;2023-02-16T12:56:42;98190.91;;;10.91;49.22
70589;BME280;58152;49.202;18.744;2023-02-16T13:01:49;98190.00;;;10.92;49.69
70589;BME280;58152;49.202;18.744;2023-02-16T13:04:29;98179.59;;;10.89;49.73
70589;BME280;58152;49.202;18.744;2023-02-16T13:07:09;98190.69;;;10.97;49.06
70589;BME280;58152;49.202;18.744;2023-02-16T13:09:56;98170.38;;;11.02;48.35
70589;BME280;58152;49.202;18.744;2023-02-16T13:12:38;98177.84;;;11.14;48.16
70589;BME280;58152;49.202;18.744;2023-02-16T13:15:14;98162.22;;;11.35;48.17
70589;BME280;58152;49.202;18.744;2023-02-16T13:18:06;98164.56;;;11.67;46.45
70589;BME280;58152;49.202;18.744;2023-02-16T13:20:40;98155.94;;;11.64;48.83
70589;BME280;58152;49.202;18.744;2023-02-16T13:23:41;98154.06;;;11.91;47.19
70589;BME280;58152;49.202;18.744;2023-02-16T13:29:05;98154.44;;;12.91;44.97
70589;BME280;58152;49.202;18.744;2023-02-16T13:31:48;98150.56;;;13.20;45.17
70589;BME280;58152;49.202;18.744;2023-02-16T13:37:04;98154.09;;;13.60;44.95
70589;BME280;58152;49.202;18.744;2023-02-16T13:39:40;98149.22;;;13.71;45.23
70589;BME280;58152;49.202;18.744;2023-02-16T13:45:13;98141.31;;;13.71;44.82
70589;BME280;58152;49.202;18.744;2023-02-16T13:47:40;98152.91;;;13.67;44.96
70589;BME280;58152;49.202;18.744;2023-02-16T13:50:24;98139.69;;;13.48;42.47
70589;BME280;58152;49.202;18.744;2023-02-16T13:52:52;98145.91;;;13.27;45.52
70589;BME280;58152;49.202;18.744;2023-02-16T13:57:57;98144.63;;;12.95;45.03
70589;BME280;58152;49.202;18.744;2023-02-16T14:03:04;98142.56;;;12.61;44.91
70589;BME280;58152;49.202;18.744;2023-02-16T14:05:37;98139.75;;;12.43;46.45
70589;BME280;58152;49.202;18.744;2023-02-16T14:08:18;98139.06;;;12.16;44.53
70589;BME280;58152;49.202;18.744;2023-02-16T14:13:29;98139.72;;;12.00;45.95
70589;BME280;58152;49.202;18.744;2023-02-16T14:15:57;98125.31;;;11.86;46.12
70589;BME280;58152;49.202;18.744;2023-02-16T14:21:40;98147.19;;;11.63;45.08
70589;BME280;58152;49.202;18.744;2023-02-16T14:24:12;98134.00;;;11.41;46.74
70589;BME280;58152;49.202;18.744;2023-02-16T14:26:51;98137.75;;;11.34;46.67
70589;BME280;58152;49.202;18.744;2023-02-16T14:32:01;98133.38;;;11.10;46.27
70589;BME280;58152;49.202;18.744;2023-02-16T14:39:46;98133.97;;;10.66;47.62
70589;BME280;58152;49.202;18.744;2023-02-16T14:42:17;98143.44;;;10.71;47.27
70589;BME280;58152;49.202;18.744;2023-02-16T14:45:13;98132.31;;;10.64;46.95
70589;BME280;58152;49.202;18.744;2023-02-16T14:52:48;98123.13;;;10.23;47.93
70589;BME280;58152;49.202;18.744;2023-02-16T15:03:23;98118.16;;;9.85;48.14
70589;BME280;58152;49.202;18.744;2023-02-16T15:08:44;98111.78;;;9.64;48.88
70589;BME280;58152;49.202;18.744;2023-02-16T15:11:20;98112.88;;;9.57;48.47
70589;BME280;58152;49.202;18.744;2023-02-16T15:13:47;98109.66;;;9.48;49.10
70589;BME280;58152;49.202;18.744;2023-02-16T15:16:19;98115.25;;;9.35;48.98
70589;BME280;58152;49.202;18.744;2023-02-16T15:18:47;98113.91;;;9.21;49.33
70589;BME280;58152;49.202;18.744;2023-02-16T15:21:19;98112.50;;;9.09;49.36
70589;BME280;58152;49.202;18.744;2023-02-16T15:23:50;98106.75;;;8.96;49.41
70589;BME280;58152;49.202;18.744;2023-02-16T15:26:21;98119.91;;;8.93;50.03